Itapevi, Brazil
Current Conditions -  °F | °C
As of 12:00 AM on Tuesday 23 Dec 2014 (Local Time) from SBSP Reporting Station
Moderate Rain Moderate Rain  
Wind Chill: 70°   Ceiling: 500
Heat Index: NA   Visibility: 2.8mi
Dew Point: NA   Wind: 9mph
Humidity: NA   Direction: 190°S
Pressure: 30.06"   Gusts: NA
Location:  23.55°S, 46.93°W
Report Text: SBSP 230200Z 19008KT 4500 RA SCT003 BKN005 FEW025TCU OVC070 21/19 Q1018 RERA
Loading
Personal Weather Stations






























Interactive Weather Map New forecast layout! Learn more

10-Day Weather Forecast

Advertisements
Track Severe Weather on mobile